Time;durP1;ratioP1;P1;durP2;ratioP2;P2;SDS_P1;SDS_P2;PMS_P1;PMS_P2;Temp;Humidity;BMP_temperature;BMP_pressure;BME280_temperature;BME280_humidity;BME280_pressure;Samples;Min_cycle;Max_cycle;Signal;HPM_P1;HPM_P2
2023/12/29 00:01:59;;;;;;;1999.90;999.90;;;9.90;99.90;;;;;;5033090;28;20033;-69
2023/12/29 00:04:25;;;;;;;1999.90;999.90;;;9.90;99.90;;;;;;5029926;28;20037;-70
2023/12/29 00:06:51;;;;;;;1999.90;999.90;;;10.00;99.90;;;;;;5031507;28;20029;-70
2023/12/29 00:09:17;;;;;;;1999.90;999.90;;;10.00;99.90;;;;;;5032929;28;20367;-70
2023/12/29 00:11:43;;;;;;;1999.90;999.90;;;10.00;99.90;;;;;;5032232;28;20026;-70
2023/12/29 00:14:08;;;;;;;1999.90;999.90;;;10.00;99.90;;;;;;5032834;28;20037;-70
2023/12/29 00:16:34;;;;;;;1999.90;999.90;;;10.00;99.90;;;;;;5031308;28;20056;-71
2023/12/29 00:19:00;;;;;;;1999.90;999.90;;;10.00;99.90;;;;;;5032964;28;20029;-71
2023/12/29 00:21:25;;;;;;;1999.90;999.90;;;10.00;99.90;;;;;;5032354;28;20044;-71
2023/12/29 00:23:51;;;;;;;1999.90;999.90;;;9.90;99.90;;;;;;5032804;28;20037;-70
2023/12/29 00:26:17;;;;;;;1999.90;999.90;;;10.00;99.90;;;;;;5032670;28;20064;-71
2023/12/29 00:28:44;;;;;;;1999.90;999.90;;;10.00;99.90;;;;;;5030763;28;20324;-69
2023/12/29 00:31:14;;;;;;;1999.90;999.90;;;10.00;99.90;;;;;;5027380;28;20128;-70
2023/12/29 00:33:40;;;;;;;1999.90;999.90;;;10.00;99.90;;;;;;5034926;28;20033;-70
2023/12/29 00:36:06;;;;;;;1999.90;999.90;;;9.90;99.90;;;;;;5036224;28;20029;-69
2023/12/29 00:38:31;;;;;;;1999.90;999.90;;;9.90;99.90;;;;;;5034564;28;20144;-70
2023/12/29 00:40:57;;;;;;;1999.90;999.90;;;9.90;99.90;;;;;;5036582;28;20036;-70
2023/12/29 00:43:23;;;;;;;1999.90;999.90;;;9.80;99.90;;;;;;5031129;28;20121;-70
2023/12/29 00:45:48;;;;;;;1999.90;999.90;;;9.80;99.90;;;;;;5033696;28;20063;-69
2023/12/29 00:48:14;;;;;;;1999.90;999.90;;;9.80;99.90;;;;;;5030704;28;20041;-70
2023/12/29 00:50:40;;;;;;;1999.90;999.90;;;9.80;99.90;;;;;;5034663;28;20305;-70
2023/12/29 00:53:05;;;;;;;1999.90;999.90;;;9.80;99.90;;;;;;5036258;28;20033;-70
2023/12/29 00:55:31;;;;;;;1999.90;999.90;;;9.80;99.90;;;;;;5035821;28;20033;-70
2023/12/29 00:57:57;;;;;;;1999.90;999.90;;;9.90;99.90;;;;;;5035727;28;20029;-70
2023/12/29 01:00:22;;;;;;;1999.90;999.90;;;9.90;99.90;;;;;;5036288;28;20068;-70
2023/12/29 01:02:48;;;;;;;1999.90;999.90;;;9.90;99.90;;;;;;5035691;28;20024;-69
2023/12/29 01:05:17;;;;;;;1999.90;999.90;;;9.90;99.90;;;;;;5033967;28;20109;-70
2023/12/29 01:07:43;;;;;;;1999.90;999.90;;;10.00;99.90;;;;;;5033685;28;20025;-70
2023/12/29 01:10:09;;;;;;;1999.90;999.90;;;10.00;99.90;;;;;;5035232;28;20056;-69
2023/12/29 01:12:35;;;;;;;1999.90;999.90;;;10.00;99.90;;;;;;5035943;28;20112;-69
2023/12/29 01:15:00;;;;;;;1999.90;999.90;;;10.00;99.90;;;;;;5035541;28;20665;-70
2023/12/29 01:17:28;;;;;;;1999.90;999.90;;;10.10;99.90;;;;;;5035737;28;20029;-70
2023/12/29 01:19:54;;;;;;;1999.90;999.90;;;10.10;99.90;;;;;;5035497;28;20025;-69
2023/12/29 01:22:20;;;;;;;1999.90;999.90;;;10.10;99.90;;;;;;5035927;28;20035;-70
2023/12/29 01:24:46;;;;;;;1999.90;999.90;;;10.20;99.90;;;;;;5035119;28;20029;-70
2023/12/29 01:27:11;;;;;;;1999.90;999.90;;;10.20;99.90;;;;;;5035992;28;20045;-70
2023/12/29 01:29:37;;;;;;;1999.90;999.90;;;10.20;99.90;;;;;;5035541;28;20040;-70
2023/12/29 01:32:03;;;;;;;1999.90;999.90;;;10.20;99.90;;;;;;5035162;28;20566;-70
2023/12/29 01:34:33;;;;;;;1999.90;999.90;;;10.20;99.90;;;;;;5035716;28;20036;-70
2023/12/29 01:37:01;;;;;;;1999.90;999.90;;;10.20;99.90;;;;;;5027423;28;20275;-70
2023/12/29 01:39:28;;;;;;;1999.90;999.90;;;10.20;99.90;;;;;;5034846;28;20038;-69
2023/12/29 01:41:55;;;;;;;1999.90;999.90;;;10.20;99.90;;;;;;5031865;28;20045;-69
2023/12/29 01:44:22;;;;;;;1999.90;999.90;;;10.20;99.90;;;;;;5024267;28;20057;-69
2023/12/29 01:46:51;;;;;;;1999.90;999.90;;;10.20;99.90;;;;;;5032677;28;20329;-70
2023/12/29 01:49:18;;;;;;;1999.90;999.90;;;10.20;99.90;;;;;;5033817;28;20044;-70
2023/12/29 01:51:45;;;;;;;1999.90;999.90;;;10.10;99.90;;;;;;5027442;28;20026;-70
2023/12/29 01:54:12;;;;;;;1999.90;999.90;;;10.10;99.90;;;;;;5034918;28;20068;-70
2023/12/29 01:56:38;;;;;;;1999.90;999.90;;;10.10;99.90;;;;;;5035368;28;20064;-71
2023/12/29 01:59:04;;;;;;;1999.90;999.90;;;10.10;99.90;;;;;;5034879;28;20033;-70
2023/12/29 02:01:31;;;;;;;1999.90;999.90;;;10.20;99.90;;;;;;5030898;28;20040;-71
2023/12/29 02:03:57;;;;;;;1999.90;999.90;;;10.10;99.90;;;;;;5034851;28;20026;-70
2023/12/29 02:06:25;;;;;;;1999.90;999.90;;;10.20;99.90;;;;;;5034356;28;20348;-70
2023/12/29 02:08:51;;;;;;;1999.90;999.90;;;10.10;99.90;;;;;;5031779;28;20029;-70
2023/12/29 02:11:17;;;;;;;1999.90;999.90;;;10.20;99.90;;;;;;5033667;28;20033;-71
2023/12/29 02:13:43;;;;;;;1999.90;999.90;;;10.20;99.90;;;;;;5024444;28;20041;-70
2023/12/29 02:16:37;;;;;;;1999.90;999.90;;;10.20;99.90;;;;;;5034787;28;20025;-70
2023/12/29 02:19:27;;;;;;;1999.90;999.90;;;10.10;99.90;;;;;;5032780;28;20076;-69
2023/12/29 02:21:53;;;;;;;1999.90;999.90;;;10.20;99.90;;;;;;5028616;28;20026;-70
2023/12/29 02:24:18;;;;;;;1999.90;999.90;;;10.10;99.90;;;;;;5033291;28;20730;-69
2023/12/29 02:26:50;;;;;;;1999.90;999.90;;;10.10;99.90;;;;;;5030430;28;20025;-70
2023/12/29 02:29:19;;;;;;;1999.90;999.90;;;10.10;99.90;;;;;;5027485;28;20335;-71
2023/12/29 02:31:50;;;;;;;1999.90;999.90;;;10.20;99.90;;;;;;5033270;28;20057;-70
2023/12/29 02:34:19;;;;;;;1999.90;999.90;;;10.20;99.90;;;;;;5026696;28;20034;-69
2023/12/29 02:36:46;;;;;;;1999.90;999.90;;;10.20;99.90;;;;;;5033420;28;20124;-70
2023/12/29 02:39:12;;;;;;;1999.90;999.90;;;10.20;99.90;;;;;;5032987;28;20031;-70
2023/12/29 02:41:39;;;;;;;1999.90;999.90;;;10.20;99.90;;;;;;5034999;28;20029;-69
2023/12/29 02:44:04;;;;;;;;;;;10.10;99.90;;;;;;5027188;28;20026;-70
2023/12/29 02:46:30;;;;;;;1999.90;999.90;;;10.10;99.90;;;;;;5024970;28;19912;-70
2023/12/29 02:48:56;;;;;;;1999.90;999.90;;;10.10;99.90;;;;;;5030743;28;20293;-69
2023/12/29 02:51:22;;;;;;;1999.90;999.90;;;10.00;99.90;;;;;;5014802;28;20051;-70
2023/12/29 02:53:48;;;;;;;1999.90;999.90;;;10.00;99.90;;;;;;5030558;28;20049;-71
2023/12/29 02:56:14;;;;;;;1999.90;999.90;;;10.00;99.90;;;;;;5029402;28;20056;-70
2023/12/29 02:58:40;;;;;;;1999.90;999.90;;;10.00;99.90;;;;;;5027077;28;20413;-69
2023/12/29 03:01:06;;;;;;;1999.90;999.90;;;10.10;99.90;;;;;;5029306;28;20079;-69
2023/12/29 03:03:32;;;;;;;1999.90;999.90;;;10.10;99.90;;;;;;5029579;28;20105;-70
2023/12/29 03:05:57;;;;;;;1999.90;999.90;;;10.10;99.90;;;;;;5027124;28;20028;-70
2023/12/29 03:08:23;;;;;;;1999.90;999.90;;;10.10;99.90;;;;;;5028857;28;20021;-69
2023/12/29 03:10:49;;;;;;;1999.90;999.90;;;10.10;99.90;;;;;;5028665;28;20434;-70
2023/12/29 03:13:15;;;;;;;1999.90;999.90;;;10.10;99.90;;;;;;5029945;28;20032;-70
2023/12/29 03:15:40;;;;;;;1999.90;999.90;;;10.20;99.90;;;;;;5032363;28;20091;-70
2023/12/29 03:18:06;;;;;;;1999.90;999.90;;;10.20;99.90;;;;;;5028634;28;20543;-69
2023/12/29 03:20:32;;;;;;;1999.90;999.90;;;10.10;99.90;;;;;;5031058;28;20029;-70
2023/12/29 03:22:57;;;;;;;1999.90;999.90;;;10.10;99.90;;;;;;5026962;28;20095;-69
2023/12/29 03:25:23;;;;;;;1999.90;999.90;;;10.10;99.90;;;;;;5031427;28;20502;-69
2023/12/29 03:27:49;;;;;;;1999.90;999.90;;;10.10;99.90;;;;;;5029551;28;20052;-70
2023/12/29 03:30:14;;;;;;;1999.90;999.90;;;10.00;99.90;;;;;;5036642;28;20032;-70
2023/12/29 03:32:40;;;;;;;1999.90;999.90;;;10.00;99.90;;;;;;5030610;28;20037;-70
2023/12/29 03:35:06;;;;;;;1999.90;999.90;;;10.00;99.90;;;;;;5026234;28;20076;-70
2023/12/29 03:37:32;;;;;;;1999.90;999.90;;;9.90;99.90;;;;;;5024747;28;20428;-69
2023/12/29 03:39:57;;;;;;;1999.90;999.90;;;9.90;99.90;;;;;;5029747;28;20032;-70
2023/12/29 03:42:23;;;;;;;1999.90;999.90;;;9.90;99.90;;;;;;5032021;28;20037;-69
2023/12/29 03:44:49;;;;;;;1999.90;999.90;;;10.00;99.90;;;;;;5028832;28;20083;-70
2023/12/29 03:47:14;;;;;;;1999.90;999.90;;;9.90;99.90;;;;;;5025528;28;20029;-71
2023/12/29 03:49:40;;;;;;;1999.90;999.90;;;10.00;99.90;;;;;;5032942;28;20040;-70
2023/12/29 03:52:06;;;;;;;1999.90;999.90;;;10.00;99.90;;;;;;5026754;28;20116;-69
2023/12/29 03:54:31;;;;;;;1999.90;999.90;;;10.00;99.90;;;;;;5034594;28;20405;-70
2023/12/29 03:56:57;;;;;;;1999.90;999.90;;;10.00;99.90;;;;;;5029039;28;20150;-70
2023/12/29 03:59:23;;;;;;;1999.90;999.90;;;10.00;99.90;;;;;;5034595;28;20112;-68
2023/12/29 04:01:49;;;;;;;1999.90;999.90;;;10.00;99.90;;;;;;5033360;28;20103;-70
2023/12/29 04:04:15;;;;;;;1999.90;999.90;;;10.00;99.90;;;;;;5030635;28;20061;-69
2023/12/29 04:06:40;;;;;;;1999.90;999.90;;;10.00;99.90;;;;;;5029340;28;20062;-70
2023/12/29 04:09:07;;;;;;;1999.90;999.90;;;10.00;99.90;;;;;;5033393;28;20037;-69
2023/12/29 04:11:32;;;;;;;1999.90;999.90;;;9.90;99.90;;;;;;5038883;28;20025;-70
2023/12/29 04:13:58;;;;;;;1999.90;999.90;;;9.90;99.90;;;;;;5038894;28;20052;-70
2023/12/29 04:16:24;;;;;;;1999.90;999.90;;;9.90;99.90;;;;;;5035628;28;20032;-69
2023/12/29 04:18:49;;;;;;;1999.90;999.90;;;9.90;99.90;;;;;;5039802;28;20033;-71
2023/12/29 04:21:15;;;;;;;1999.90;999.90;;;9.90;99.90;;;;;;5037783;28;20040;-69
2023/12/29 04:23:44;;;;;;;1999.90;999.90;;;9.90;99.90;;;;;;5033904;28;20131;-69
2023/12/29 04:26:09;;;;;;;1999.90;999.90;;;9.90;99.90;;;;;;5039129;28;20443;-70
2023/12/29 04:28:35;;;;;;;1999.90;999.90;;;9.90;99.90;;;;;;5034567;28;20034;-70
2023/12/29 04:31:01;;;;;;;1999.90;999.90;;;9.90;99.90;;;;;;5037756;28;20041;-70
2023/12/29 04:33:26;;;;;;;1999.90;999.90;;;9.90;99.90;;;;;;5038972;28;20087;-70
2023/12/29 04:35:52;;;;;;;1999.90;999.90;;;10.00;99.90;;;;;;5038391;28;20415;-69
2023/12/29 04:38:19;;;;;;;1999.90;999.90;;;10.00;99.90;;;;;;5038552;28;20029;-69
2023/12/29 04:40:47;;;;;;;1999.90;999.90;;;10.10;99.90;;;;;;5039336;28;20021;-69
2023/12/29 04:43:13;;;;;;;1999.90;999.90;;;10.10;99.90;;;;;;5038861;28;20049;-69
2023/12/29 04:45:38;;;;;;;1999.90;999.90;;;10.10;99.90;;;;;;5037714;28;20140;-70
2023/12/29 04:48:04;;;;;;;1999.90;999.90;;;10.10;99.90;;;;;;5038293;28;20823;-70
2023/12/29 04:50:31;;;;;;;1999.90;999.90;;;10.10;99.90;;;;;;5037737;28;20427;-70
2023/12/29 04:52:57;;;;;;;1999.90;999.90;;;10.10;99.90;;;;;;5039611;28;20109;-70
2023/12/29 04:55:23;;;;;;;1999.90;999.90;;;10.10;99.90;;;;;;5038164;28;20025;-69
2023/12/29 04:57:48;;;;;;;1999.90;999.90;;;10.20;99.90;;;;;;5033297;28;20025;-69
2023/12/29 05:00:14;;;;;;;1999.90;999.90;;;10.20;99.90;;;;;;5038926;28;20334;-69
2023/12/29 05:02:40;;;;;;;1999.90;999.90;;;10.20;99.90;;;;;;5035264;28;20179;-70
2023/12/29 05:05:06;;;;;;;1999.90;999.90;;;10.20;99.90;;;;;;5039009;28;20029;-70
2023/12/29 05:07:32;;;;;;;1999.90;999.90;;;10.20;99.90;;;;;;5035883;28;20033;-69
2023/12/29 05:09:57;;;;;;;1999.90;999.90;;;10.20;99.90;;;;;;5037930;28;20405;-70
2023/12/29 05:12:23;;;;;;;1999.90;999.90;;;10.20;99.90;;;;;;5038927;28;20329;-71
2023/12/29 05:14:49;;;;;;;1999.90;999.90;;;10.20;99.90;;;;;;5030394;28;20100;-70
2023/12/29 05:17:14;;;;;;;1999.90;999.90;;;10.30;99.90;;;;;;5034916;28;20075;-69
2023/12/29 05:19:40;;;;;;;1999.90;999.90;;;10.30;99.90;;;;;;5035173;28;20037;-69
2023/12/29 05:22:06;;;;;;;1999.90;999.90;;;10.30;99.90;;;;;;5036013;28;20040;-70
2023/12/29 05:24:31;;;;;;;1999.90;999.90;;;10.30;99.90;;;;;;5028757;28;20025;-70
2023/12/29 05:26:57;;;;;;;1999.90;999.90;;;10.30;99.90;;;;;;5036028;28;20474;-70
2023/12/29 05:29:23;;;;;;;1999.90;999.90;;;10.40;99.90;;;;;;5034782;28;20040;-69
2023/12/29 05:31:49;;;;;;;1999.90;999.90;;;10.30;99.90;;;;;;5035291;28;20256;-69
2023/12/29 05:34:14;;;;;;;1999.90;999.90;;;10.30;99.90;;;;;;5034481;28;20412;-70
2023/12/29 05:36:42;;;;;;;1999.90;999.90;;;10.30;99.90;;;;;;5035227;28;20026;-70
2023/12/29 05:39:07;;;;;;;1999.90;999.90;;;10.30;99.90;;;;;;5035306;28;20025;-70
2023/12/29 05:41:34;;;;;;;1999.90;999.90;;;10.30;99.90;;;;;;5034766;28;20041;-69
2023/12/29 05:44:01;;;;;;;1999.90;999.90;;;10.30;99.90;;;;;;5035329;28;20092;-70
2023/12/29 05:46:26;;;;;;;1999.90;999.90;;;10.30;99.90;;;;;;5033507;28;20052;-70
2023/12/29 05:48:53;;;;;;;1999.90;999.90;;;10.30;99.90;;;;;;5031720;28;20348;-70
2023/12/29 05:51:18;;;;;;;1999.90;999.90;;;10.30;99.90;;;;;;5034367;28;20033;-70
2023/12/29 05:53:44;;;;;;;1999.90;999.90;;;10.30;99.90;;;;;;5034020;28;20045;-70
2023/12/29 05:56:12;;;;;;;1999.90;999.90;;;10.30;99.90;;;;;;5035568;28;20029;-71
2023/12/29 05:58:39;;;;;;;1999.90;999.90;;;10.30;99.90;;;;;;5035336;28;20040;-69
2023/12/29 06:01:05;;;;;;;1999.90;999.90;;;10.30;99.90;;;;;;5033901;28;20029;-70
2023/12/29 06:03:31;;;;;;;1999.90;999.90;;;10.40;99.90;;;;;;5035281;28;20328;-70
2023/12/29 06:05:56;;;;;;;1999.90;999.90;;;10.40;99.90;;;;;;5030344;28;20113;-71
2023/12/29 06:08:22;;;;;;;1999.90;999.90;;;10.40;99.90;;;;;;5031744;28;20034;-70
2023/12/29 06:10:48;;;;;;;1999.90;999.90;;;10.40;99.90;;;;;;5034328;28;20104;-71
2023/12/29 06:13:14;;;;;;;1999.90;999.90;;;10.40;99.90;;;;;;5034914;28;20418;-70
2023/12/29 06:15:40;;;;;;;1999.90;999.90;;;10.50;99.90;;;;;;5031493;28;20631;-71
2023/12/29 06:18:06;;;;;;;1999.90;999.90;;;10.40;99.90;;;;;;5029530;28;20033;-71
2023/12/29 06:20:31;;;;;;;1999.90;999.90;;;10.50;99.90;;;;;;5028663;28;20026;-71
2023/12/29 06:22:57;;;;;;;1999.90;999.90;;;10.40;99.90;;;;;;5026292;28;20021;-70
2023/12/29 06:25:23;;;;;;;1999.90;999.90;;;10.50;99.90;;;;;;5026057;28;20032;-71
2023/12/29 06:27:49;;;;;;;1999.90;999.90;;;10.40;99.90;;;;;;5032163;28;20424;-71
2023/12/29 06:30:15;;;;;;;1999.90;999.90;;;10.40;99.90;;;;;;5034777;28;20041;-70
2023/12/29 06:32:41;;;;;;;1999.90;999.90;;;10.40;99.90;;;;;;5039025;28;20116;-70
2023/12/29 06:35:09;;;;;;;1999.90;999.90;;;10.40;99.90;;;;;;5037050;28;20037;-70
2023/12/29 06:37:38;;;;;;;1999.90;999.90;;;10.40;99.90;;;;;;5032093;28;20033;-70
2023/12/29 06:40:04;;;;;;;1999.90;999.90;;;10.30;99.90;;;;;;5037034;28;20416;-69
2023/12/29 06:42:30;;;;;;;1999.90;999.90;;;10.40;99.90;;;;;;5033607;28;20332;-69
2023/12/29 06:44:55;;;;;;;1999.90;999.90;;;10.40;99.90;;;;;;5033469;28;20112;-70
2023/12/29 06:47:21;;;;;;;1999.90;999.90;;;10.30;99.90;;;;;;5042194;28;20034;-70
2023/12/29 06:49:47;;;;;;;1999.90;999.90;;;10.40;99.90;;;;;;5042262;28;20320;-70
2023/12/29 06:52:13;;;;;;;1999.90;999.90;;;10.30;99.90;;;;;;5040407;28;20047;-71
2023/12/29 06:54:38;;;;;;;1999.90;999.90;;;10.40;99.90;;;;;;5040556;28;20680;-70
2023/12/29 06:57:04;;;;;;;1999.90;999.90;;;10.40;99.90;;;;;;5041329;28;20037;-71
2023/12/29 06:59:30;;;;;;;1999.90;999.90;;;10.40;99.90;;;;;;5036153;28;20100;-70
2023/12/29 07:01:55;;;;;;;1999.90;999.90;;;10.40;99.90;;;;;;5036452;28;20033;-71
2023/12/29 07:04:21;;;;;;;1999.90;999.90;;;10.40;99.90;;;;;;5037670;28;20431;-70
2023/12/29 07:06:47;;;;;;;1999.90;999.90;;;10.40;99.90;;;;;;5038513;28;20473;-70
2023/12/29 07:09:12;;;;;;;1999.90;999.90;;;10.30;99.90;;;;;;5036427;28;20033;-70
2023/12/29 07:11:38;;;;;;;1999.90;999.90;;;10.30;99.90;;;;;;5026026;28;20067;-70
2023/12/29 07:14:04;;;;;;;1999.90;999.90;;;10.30;99.90;;;;;;5035719;28;20745;-69
2023/12/29 07:16:29;;;;;;;1999.90;999.90;;;10.30;99.90;;;;;;5029565;28;20034;-70
2023/12/29 07:18:55;;;;;;;1999.90;999.90;;;10.20;99.90;;;;;;5039300;28;20026;-70
2023/12/29 07:21:21;;;;;;;1999.90;999.90;;;10.20;99.90;;;;;;5034193;28;20106;-70
2023/12/29 07:23:47;;;;;;;1999.90;999.90;;;10.20;99.90;;;;;;5038772;28;20413;-70
2023/12/29 07:26:12;;;;;;;1999.90;999.90;;;10.20;99.90;;;;;;5029935;28;20026;-70
2023/12/29 07:28:38;;;;;;;1999.90;999.90;;;10.30;99.90;;;;;;5039443;28;20036;-71
2023/12/29 07:31:04;;;;;;;1999.90;999.90;;;10.30;99.90;;;;;;5039948;28;20098;-69
2023/12/29 07:33:30;;;;;;;1999.90;999.90;;;10.30;99.90;;;;;;5039873;28;20415;-70
2023/12/29 07:35:56;;;;;;;1999.90;999.90;;;10.30;99.90;;;;;;5037535;28;20427;-69
2023/12/29 07:38:23;;;;;;;1999.90;999.90;;;10.30;99.90;;;;;;5029742;28;20067;-70
2023/12/29 07:40:49;;;;;;;1999.90;999.90;;;10.30;99.90;;;;;;5039322;28;20045;-69
2023/12/29 07:43:15;;;;;;;1999.90;999.90;;;10.30;99.90;;;;;;5032234;28;20080;-70
2023/12/29 07:45:40;;;;;;;1999.90;999.90;;;10.30;99.90;;;;;;5039756;28;20489;-69
2023/12/29 07:48:07;;;;;;;1999.90;999.90;;;10.20;99.90;;;;;;5034643;28;20108;-69
2023/12/29 07:50:33;;;;;;;1999.90;999.90;;;10.30;99.90;;;;;;5031584;28;20446;-70
2023/12/29 07:53:02;;;;;;;1999.90;999.90;;;10.30;99.90;;;;;;5028386;28;20033;-70
2023/12/29 07:55:31;;;;;;;1999.90;999.90;;;10.20;99.90;;;;;;5035052;28;20033;-70
2023/12/29 07:57:57;;;;;;;1999.90;999.90;;;10.30;99.90;;;;;;5025419;28;20421;-70
2023/12/29 08:00:23;;;;;;;1999.90;999.90;;;10.20;99.90;;;;;;5033100;28;20033;-70
2023/12/29 08:02:49;;;;;;;1999.90;999.90;;;10.20;99.90;;;;;;5030594;28;20029;-69
2023/12/29 08:05:16;;;;;;;1999.90;999.90;;;10.20;99.90;;;;;;5028167;28;20138;-70
2023/12/29 08:07:42;;;;;;;;;;;10.20;99.90;;;;;;5026975;28;20033;-70
2023/12/29 08:10:08;;;;;;;1999.90;999.90;;;10.20;99.90;;;;;;5026564;28;19945;-70
2023/12/29 08:12:35;;;;;;;1999.90;999.90;;;10.10;99.90;;;;;;5034146;28;20043;-70
2023/12/29 08:15:02;;;;;;;1999.90;999.90;;;10.20;99.90;;;;;;5027547;28;20032;-70
2023/12/29 08:17:28;;;;;;;;;;;10.20;99.90;;;;;;5029892;28;20034;-70
2023/12/29 08:19:54;;;;;;;1999.90;999.90;;;10.20;99.90;;;;;;5033417;28;19913;-69
2023/12/29 08:22:21;;;;;;;1999.90;999.90;;;10.30;99.90;;;;;;5023125;28;20101;-70
2023/12/29 08:24:46;;;;;;;1999.90;999.90;;;10.30;99.90;;;;;;5031238;28;20025;-70
2023/12/29 08:27:13;;;;;;;1999.90;999.90;;;10.30;99.90;;;;;;5027041;28;20367;-70
2023/12/29 08:29:39;;;;;;;1999.90;999.90;;;10.40;99.90;;;;;;5029018;28;20028;-70
2023/12/29 08:32:05;;;;;;;1999.90;999.90;;;10.40;99.90;;;;;;5031415;28;20079;-70
2023/12/29 08:34:31;;;;;;;1999.90;999.90;;;10.40;99.90;;;;;;5027251;28;20045;-70
2023/12/29 08:36:57;;;;;;;1999.90;999.90;;;10.50;99.90;;;;;;5029888;28;20029;-70
2023/12/29 08:39:24;;;;;;;1999.90;999.90;;;10.50;99.90;;;;;;5021489;28;20030;-69
2023/12/29 08:41:50;;;;;;;1999.90;999.90;;;10.50;99.90;;;;;;5030194;28;20117;-69
2023/12/29 08:44:15;;;;;;;1999.90;999.90;;;10.50;99.90;;;;;;5025169;28;20061;-69
2023/12/29 08:46:41;;;;;;;1999.90;999.90;;;10.50;99.90;;;;;;5029233;28;20405;-70
2023/12/29 08:49:07;;;;;;;1999.90;999.90;;;10.40;99.90;;;;;;5024549;28;20641;-69
2023/12/29 08:51:33;;;;;;;1999.90;999.90;;;10.40;99.90;;;;;;5031683;28;20014;-70
2023/12/29 08:53:59;;;;;;;1999.90;999.90;;;10.40;99.90;;;;;;5034999;28;20324;-69
2023/12/29 08:56:25;;;;;;;1999.90;999.90;;;10.40;99.90;;;;;;5034135;28;20041;-70
2023/12/29 08:58:52;;;;;;;1999.90;999.90;;;10.40;99.90;;;;;;5038130;28;20057;-70
2023/12/29 09:01:18;;;;;;;1999.90;999.90;;;10.40;99.90;;;;;;5040962;28;20432;-70
2023/12/29 09:03:43;;;;;;;1999.90;999.90;;;10.40;99.90;;;;;;5030938;28;20056;-70
2023/12/29 09:06:09;;;;;;;1999.90;999.90;;;10.40;99.90;;;;;;5039618;28;20033;-70
2023/12/29 09:08:35;;;;;;;1999.90;999.90;;;10.40;99.90;;;;;;5037775;28;20045;-70
2023/12/29 09:11:02;;;;;;;1999.90;999.90;;;10.40;99.90;;;;;;5041101;28;20037;-69
2023/12/29 09:13:28;;;;;;;1999.90;999.90;;;10.40;99.90;;;;;;5035706;28;20279;-71
2023/12/29 09:15:55;;;;;;;1999.90;999.90;;;10.40;99.90;;;;;;5038840;28;20087;-70
2023/12/29 09:18:21;;;;;;;1999.90;999.90;;;10.40;99.90;;;;;;5036198;28;20207;-70
2023/12/29 09:20:47;;;;;;;1999.90;999.90;;;10.40;99.90;;;;;;5039633;28;20096;-71
2023/12/29 09:23:13;;;;;;;1999.90;999.90;;;10.40;99.90;;;;;;5040958;28;20044;-70
2023/12/29 09:25:39;;;;;;;1999.90;999.90;;;10.50;99.90;;;;;;5039102;28;20022;-70
2023/12/29 09:28:05;;;;;;;1999.90;999.90;;;10.50;99.90;;;;;;5034971;28;20029;-70
2023/12/29 09:30:31;;;;;;;1999.90;999.90;;;10.50;99.90;;;;;;5039443;28;20038;-70
2023/12/29 09:32:56;;;;;;;1999.90;999.90;;;10.60;99.90;;;;;;5038739;28;20108;-71
2023/12/29 09:35:22;;;;;;;1999.90;999.90;;;10.60;99.90;;;;;;5031909;28;20025;-70
2023/12/29 09:37:48;;;;;;;1999.90;999.90;;;10.70;99.90;;;;;;5031248;28;20061;-71
2023/12/29 09:40:15;;;;;;;1999.90;999.90;;;10.80;99.90;;;;;;5029225;28;20041;-69
2023/12/29 09:42:44;;;;;;;1999.90;999.90;;;10.80;99.90;;;;;;5028418;28;20069;-70
2023/12/29 09:45:13;;;;;;;1999.90;999.90;;;10.80;99.90;;;;;;5023893;28;20030;-71
2023/12/29 09:47:42;;;;;;;1999.90;999.90;;;10.80;99.90;;;;;;5037474;28;20655;-70
2023/12/29 09:50:11;;;;;;;1999.90;999.90;;;10.80;99.90;;;;;;5028211;28;20048;-70
2023/12/29 09:52:39;;;;;;;1999.90;999.90;;;10.80;99.90;;;;;;5033028;28;20101;-69
2023/12/29 09:55:09;;;;;;;1999.90;999.90;;;10.80;99.90;;;;;;5032225;28;20112;-69
2023/12/29 09:57:35;;;;;;;1999.90;999.90;;;10.80;99.90;;;;;;5036302;28;20030;-70
2023/12/29 10:00:02;;;;;;;1999.90;999.90;;;10.70;99.90;;;;;;5037042;28;20032;-69
2023/12/29 10:02:28;;;;;;;;;;;10.70;99.90;;;;;;5027542;28;20033;-69
2023/12/29 10:04:54;;;;;;;1999.90;999.90;;;10.70;99.90;;;;;;5035011;28;20415;-69
2023/12/29 10:07:34;;;;;;;1999.90;999.90;;;10.70;99.90;;;;;;5035073;28;20111;-70
2023/12/29 10:10:01;;;;;;;1999.90;999.90;;;10.70;99.90;;;;;;5030067;28;20057;-72
2023/12/29 10:12:28;;;;;;;1999.90;999.90;;;10.80;99.90;;;;;;5034843;28;20037;-69
2023/12/29 10:15:15;;;;;;;1999.90;999.90;;;10.80;99.90;;;;;;5029490;28;20439;-71
2023/12/29 10:18:12;;;;;;;1999.90;999.90;;;10.80;99.90;;;;;;5032562;28;20029;-69
2023/12/29 10:20:57;;;;;;;1999.90;999.90;;;10.80;99.90;;;;;;5032895;28;20026;-70
2023/12/29 10:23:47;;;;;;;1999.90;999.90;;;10.90;99.90;;;;;;5025405;28;20026;-70
2023/12/29 10:26:13;;;;;;;1999.90;999.90;;;10.90;99.90;;;;;;5037067;28;20083;-70
2023/12/29 10:28:39;;;;;;;1999.90;999.90;;;10.90;99.90;;;;;;5035512;28;20116;-71
2023/12/29 10:31:05;;;;;;;1999.90;999.90;;;10.90;99.90;;;;;;5030780;28;20120;-70
2023/12/29 10:33:32;;;;;;;1999.90;999.90;;;10.90;99.90;;;;;;5031529;28;20617;-72
2023/12/29 10:36:05;;;;;;;1999.90;999.90;;;10.90;99.90;;;;;;5022710;28;20075;-71
2023/12/29 10:38:31;;;;;;;1999.90;999.90;;;10.90;99.90;;;;;;5033461;28;20056;-70
2023/12/29 10:41:13;;;;;;;1999.90;999.90;;;10.90;99.90;;;;;;5040440;28;20030;-70
2023/12/29 10:43:40;;;;;;;1999.90;999.90;;;10.90;99.90;;;;;;5044493;28;20463;-70
2023/12/29 10:46:08;;;;;;;1999.90;999.90;;;11.00;99.90;;;;;;5042633;28;20082;-70
2023/12/29 10:48:34;;;;;;;1999.90;999.90;;;11.00;99.90;;;;;;5038284;28;20121;-70
2023/12/29 10:51:03;;;;;;;1999.90;999.90;;;11.10;99.90;;;;;;5029445;28;20421;-70
2023/12/29 10:53:33;;;;;;;1999.90;999.90;;;11.10;99.90;;;;;;5028199;28;20041;-70
2023/12/29 10:55:59;;;;;;;1999.90;999.90;;;11.00;99.90;;;;;;5034133;28;20420;-70
2023/12/29 10:58:29;;;;;;;1999.90;999.90;;;11.10;99.90;;;;;;5036221;28;20041;-70
2023/12/29 11:01:01;;;;;;;1999.90;999.90;;;11.20;99.90;;;;;;5033017;28;20111;-70
2023/12/29 11:03:27;;;;;;;1999.90;999.90;;;11.30;99.90;;;;;;5032775;28;20396;-70
2023/12/29 11:06:02;;;;;;;1999.90;999.90;;;11.30;99.90;;;;;;5032530;28;20028;-70
2023/12/29 11:08:27;;;;;;;1999.90;999.90;;;11.20;99.90;;;;;;5027751;28;20116;-71
2023/12/29 11:10:55;;;;;;;1999.90;999.90;;;11.30;99.90;;;;;;5032578;28;20096;-70
2023/12/29 11:13:21;;;;;;;1999.90;999.90;;;11.20;99.90;;;;;;5036535;28;20030;-70
2023/12/29 11:15:47;;;;;;;1999.90;999.90;;;11.30;99.90;;;;;;5036368;28;20324;-70
2023/12/29 11:18:15;;;;;;;1999.90;999.90;;;11.30;99.90;;;;;;5038709;28;20032;-70
2023/12/29 11:20:45;;;;;;;1999.90;999.90;;;11.30;99.90;;;;;;5033829;28;20321;-70
2023/12/29 11:23:14;;;;;;;1999.90;999.90;;;11.30;99.90;;;;;;5037364;28;20120;-70
2023/12/29 11:25:40;;;;;;;1999.90;999.90;;;11.30;99.90;;;;;;5030629;28;20026;-69
2023/12/29 11:28:13;;;;;;;1999.90;999.90;;;11.30;99.90;;;;;;5032404;28;20029;-70
2023/12/29 11:30:39;;;;;;;1999.90;999.90;;;11.30;99.90;;;;;;5029807;28;20029;-71
2023/12/29 11:33:36;;;;;;;1999.90;999.90;;;11.30;99.90;;;;;;5033142;28;20322;-71
2023/12/29 11:36:23;;;;;;;1999.90;999.90;;;11.30;99.90;;;;;;5029334;28;20033;-70
2023/12/29 11:39:00;;;;;;;1999.90;999.90;;;11.30;99.90;;;;;;5033170;28;20033;-70
2023/12/29 11:41:35;;;;;;;1999.90;999.90;;;11.30;99.90;;;;;;5031409;28;20037;-70
2023/12/29 11:44:01;;;;;;;1999.90;999.90;;;11.30;99.90;;;;;;5032659;28;20144;-71
2023/12/29 11:46:43;;;;;;;1999.90;999.90;;;11.30;99.90;;;;;;5038481;28;20052;-70
2023/12/29 11:49:09;;;;;;;1999.90;999.90;;;11.30;99.90;;;;;;5029494;28;20092;-70
2023/12/29 11:51:43;;;;;;;1999.90;999.90;;;11.30;99.90;;;;;;5036216;28;20029;-71
2023/12/29 11:54:09;;;;;;;1999.90;999.90;;;11.40;99.90;;;;;;5033274;28;20420;-70
2023/12/29 11:56:43;;;;;;;1999.90;999.90;;;11.40;99.90;;;;;;5027475;28;20040;-70
2023/12/29 11:59:14;;;;;;;1999.90;999.90;;;11.40;99.90;;;;;;5032591;28;20312;-70
2023/12/29 12:01:40;;;;;;;1999.90;999.90;;;11.40;99.90;;;;;;5026937;28;20314;-70